sensor_id;sensor_type;location;lat;lon;timestamp;temperature;humidity
74923;HTU21D;64715;44.760;37.678;2023-03-14T00:00:39;3.54;72.24
74923;HTU21D;64715;44.760;37.678;2023-03-14T00:01:43;3.56;72.22
74923;HTU21D;64715;44.760;37.678;2023-03-14T00:02:44;3.57;72.29
74923;HTU21D;64715;44.760;37.678;2023-03-14T00:03:46;3.55;72.49
74923;HTU21D;64715;44.760;37.678;2023-03-14T00:04:48;3.58;72.46
74923;HTU21D;64715;44.760;37.678;2023-03-14T00:05:49;3.58;72.58
74923;HTU21D;64715;44.760;37.678;2023-03-14T00:06:50;3.57;72.34
74923;HTU21D;64715;44.760;37.678;2023-03-14T00:07:51;3.56;72.44
74923;HTU21D;64715;44.760;37.678;2023-03-14T00:08:52;3.56;72.54
74923;HTU21D;64715;44.760;37.678;2023-03-14T00:09:54;3.55;72.55
74923;HTU21D;64715;44.760;37.678;2023-03-14T00:10:55;3.55;72.54
74923;HTU21D;64715;44.760;37.678;2023-03-14T00:11:59;3.56;72.70
74923;HTU21D;64715;44.760;37.678;2023-03-14T00:13:00;3.56;72.57
74923;HTU21D;64715;44.760;37.678;2023-03-14T00:14:01;3.55;72.56
74923;HTU21D;64715;44.760;37.678;2023-03-14T00:15:02;3.57;72.68
74923;HTU21D;64715;44.760;37.678;2023-03-14T00:16:06;3.56;72.93
74923;HTU21D;64715;44.760;37.678;2023-03-14T00:17:07;3.55;72.73
74923;HTU21D;64715;44.760;37.678;2023-03-14T00:18:08;3.56;72.75
74923;HTU21D;64715;44.760;37.678;2023-03-14T00:19:09;3.55;72.72
74923;HTU21D;64715;44.760;37.678;2023-03-14T00:20:11;3.53;73.02
74923;HTU21D;64715;44.760;37.678;2023-03-14T00:21:12;3.53;72.83
74923;HTU21D;64715;44.760;37.678;2023-03-14T00:22:13;3.52;72.76
74923;HTU21D;64715;44.760;37.678;2023-03-14T00:23:14;3.53;72.80
74923;HTU21D;64715;44.760;37.678;2023-03-14T00:24:15;3.50;73.15
74923;HTU21D;64715;44.760;37.678;2023-03-14T00:25:16;3.49;72.86
74923;HTU21D;64715;44.760;37.678;2023-03-14T00:26:20;3.48;73.03
74923;HTU21D;64715;44.760;37.678;2023-03-14T00:27:21;3.48;73.06
74923;HTU21D;64715;44.760;37.678;2023-03-14T00:28:22;3.46;73.01
74923;HTU21D;64715;44.760;37.678;2023-03-14T00:29:23;3.47;73.32
74923;HTU21D;64715;44.760;37.678;2023-03-14T00:30:24;3.45;72.70
74923;HTU21D;64715;44.760;37.678;2023-03-14T00:31:25;3.44;72.95
74923;HTU21D;64715;44.760;37.678;2023-03-14T00:32:26;3.43;72.67
74923;HTU21D;64715;44.760;37.678;2023-03-14T00:33:27;3.42;72.87
74923;HTU21D;64715;44.760;37.678;2023-03-14T00:34:29;3.39;72.67
74923;HTU21D;64715;44.760;37.678;2023-03-14T00:35:30;3.38;73.01
74923;HTU21D;64715;44.760;37.678;2023-03-14T00:36:31;3.38;72.59
74923;HTU21D;64715;44.760;37.678;2023-03-14T00:37:32;3.35;73.11
74923;HTU21D;64715;44.760;37.678;2023-03-14T00:38:33;3.32;73.15
74923;HTU21D;64715;44.760;37.678;2023-03-14T00:39:34;3.31;72.80
74923;HTU21D;64715;44.760;37.678;2023-03-14T00:40:39;3.28;72.90
74923;HTU21D;64715;44.760;37.678;2023-03-14T00:41:40;3.24;72.88
74923;HTU21D;64715;44.760;37.678;2023-03-14T00:42:41;3.25;72.90
74923;HTU21D;64715;44.760;37.678;2023-03-14T00:43:42;3.21;73.32
74923;HTU21D;64715;44.760;37.678;2023-03-14T00:44:43;3.20;73.21
74923;HTU21D;64715;44.760;37.678;2023-03-14T00:45:45;3.18;73.38
74923;HTU21D;64715;44.760;37.678;2023-03-14T00:46:45;3.17;73.44
74923;HTU21D;64715;44.760;37.678;2023-03-14T00:47:46;3.15;73.28
74923;HTU21D;64715;44.760;37.678;2023-03-14T00:48:48;3.16;73.48
74923;HTU21D;64715;44.760;37.678;2023-03-14T00:49:49;3.16;73.57
74923;HTU21D;64715;44.760;37.678;2023-03-14T00:50:50;3.12;73.78
74923;HTU21D;64715;44.760;37.678;2023-03-14T00:51:51;3.11;73.66
74923;HTU21D;64715;44.760;37.678;2023-03-14T00:52:53;3.09;73.67
74923;HTU21D;64715;44.760;37.678;2023-03-14T00:54:02;3.08;73.69
74923;HTU21D;64715;44.760;37.678;2023-03-14T00:55:04;3.06;73.96
74923;HTU21D;64715;44.760;37.678;2023-03-14T00:56:11;3.08;74.09
74923;HTU21D;64715;44.760;37.678;2023-03-14T00:57:12;3.05;74.12
74923;HTU21D;64715;44.760;37.678;2023-03-14T00:58:15;3.05;74.44
74923;HTU21D;64715;44.760;37.678;2023-03-14T00:59:16;3.04;74.34
74923;HTU21D;64715;44.760;37.678;2023-03-14T01:00:18;3.06;74.56
74923;HTU21D;64715;44.760;37.678;2023-03-14T01:01:19;3.04;74.67
74923;HTU21D;64715;44.760;37.678;2023-03-14T01:02:20;3.03;74.53
74923;HTU21D;64715;44.760;37.678;2023-03-14T01:03:23;3.04;74.70
74923;HTU21D;64715;44.760;37.678;2023-03-14T01:04:24;3.04;74.51
74923;HTU21D;64715;44.760;37.678;2023-03-14T01:05:25;3.04;74.83
74923;HTU21D;64715;44.760;37.678;2023-03-14T01:06:28;3.05;74.54
74923;HTU21D;64715;44.760;37.678;2023-03-14T01:07:30;3.05;74.42
74923;HTU21D;64715;44.760;37.678;2023-03-14T01:08:32;3.05;74.66
74923;HTU21D;64715;44.760;37.678;2023-03-14T01:09:35;3.04;74.57
74923;HTU21D;64715;44.760;37.678;2023-03-14T01:10:42;3.03;74.60
74923;HTU21D;64715;44.760;37.678;2023-03-14T01:11:44;3.02;74.75
74923;HTU21D;64715;44.760;37.678;2023-03-14T01:12:47;3.01;74.66
74923;HTU21D;64715;44.760;37.678;2023-03-14T01:13:48;3.02;75.09
74923;HTU21D;64715;44.760;37.678;2023-03-14T01:14:49;3.03;74.68
74923;HTU21D;64715;44.760;37.678;2023-03-14T01:15:50;3.03;74.76
74923;HTU21D;64715;44.760;37.678;2023-03-14T01:16:51;3.04;74.80
74923;HTU21D;64715;44.760;37.678;2023-03-14T01:17:52;3.05;74.68
74923;HTU21D;64715;44.760;37.678;2023-03-14T01:18:54;3.04;74.77
74923;HTU21D;64715;44.760;37.678;2023-03-14T01:19:55;3.03;74.90
74923;HTU21D;64715;44.760;37.678;2023-03-14T01:20:57;3.04;74.79
74923;HTU21D;64715;44.760;37.678;2023-03-14T01:21:58;3.04;74.79
74923;HTU21D;64715;44.760;37.678;2023-03-14T01:22:59;3.05;74.80
74923;HTU21D;64715;44.760;37.678;2023-03-14T01:24:03;3.05;74.78
74923;HTU21D;64715;44.760;37.678;2023-03-14T01:25:09;3.03;74.89
74923;HTU21D;64715;44.760;37.678;2023-03-14T01:26:13;3.02;74.91
74923;HTU21D;64715;44.760;37.678;2023-03-14T01:27:14;3.03;74.70
74923;HTU21D;64715;44.760;37.678;2023-03-14T01:28:15;3.01;74.60
74923;HTU21D;64715;44.760;37.678;2023-03-14T01:29:16;3.00;74.38
74923;HTU21D;64715;44.760;37.678;2023-03-14T01:30:17;2.98;74.44
74923;HTU21D;64715;44.760;37.678;2023-03-14T01:31:18;2.98;74.35
74923;HTU21D;64715;44.760;37.678;2023-03-14T01:32:19;2.98;74.83
74923;HTU21D;64715;44.760;37.678;2023-03-14T01:33:20;2.99;74.92
74923;HTU21D;64715;44.760;37.678;2023-03-14T01:34:22;3.04;75.31
74923;HTU21D;64715;44.760;37.678;2023-03-14T01:35:23;3.08;75.08
74923;HTU21D;64715;44.760;37.678;2023-03-14T01:36:25;3.11;75.21
74923;HTU21D;64715;44.760;37.678;2023-03-14T01:37:26;3.13;74.99
74923;HTU21D;64715;44.760;37.678;2023-03-14T01:38:27;3.14;75.07
74923;HTU21D;64715;44.760;37.678;2023-03-14T01:39:28;3.15;74.92
74923;HTU21D;64715;44.760;37.678;2023-03-14T01:40:29;3.16;75.03
74923;HTU21D;64715;44.760;37.678;2023-03-14T01:41:30;3.17;74.87
74923;HTU21D;64715;44.760;37.678;2023-03-14T01:42:33;3.19;74.54
74923;HTU21D;64715;44.760;37.678;2023-03-14T01:43:35;3.23;75.09
74923;HTU21D;64715;44.760;37.678;2023-03-14T01:44:54;3.23;75.05
74923;HTU21D;64715;44.760;37.678;2023-03-14T01:47:06;3.28;74.85
74923;HTU21D;64715;44.760;37.678;2023-03-14T01:48:07;3.25;74.89
74923;HTU21D;64715;44.760;37.678;2023-03-14T01:49:28;3.29;74.67
74923;HTU21D;64715;44.760;37.678;2023-03-14T01:50:36;3.29;74.73
74923;HTU21D;64715;44.760;37.678;2023-03-14T01:52:03;3.29;75.02
74923;HTU21D;64715;44.760;37.678;2023-03-14T01:53:07;3.29;74.91
74923;HTU21D;64715;44.760;37.678;2023-03-14T01:54:14;3.29;75.00
74923;HTU21D;64715;44.760;37.678;2023-03-14T01:55:22;3.28;74.61
74923;HTU21D;64715;44.760;37.678;2023-03-14T01:56:24;3.29;74.94
74923;HTU21D;64715;44.760;37.678;2023-03-14T01:57:29;3.30;74.91
74923;HTU21D;64715;44.760;37.678;2023-03-14T01:58:32;3.29;74.91
74923;HTU21D;64715;44.760;37.678;2023-03-14T01:59:38;3.27;74.79
74923;HTU21D;64715;44.760;37.678;2023-03-14T02:00:40;3.29;74.73
74923;HTU21D;64715;44.760;37.678;2023-03-14T02:01:43;3.30;74.81
74923;HTU21D;64715;44.760;37.678;2023-03-14T02:02:51;3.30;74.73
74923;HTU21D;64715;44.760;37.678;2023-03-14T02:04:00;3.31;74.86
74923;HTU21D;64715;44.760;37.678;2023-03-14T02:05:02;3.30;74.76
74923;HTU21D;64715;44.760;37.678;2023-03-14T02:06:08;3.31;75.02
74923;HTU21D;64715;44.760;37.678;2023-03-14T02:07:19;3.34;74.83
74923;HTU21D;64715;44.760;37.678;2023-03-14T02:08:40;3.30;74.86
74923;HTU21D;64715;44.760;37.678;2023-03-14T02:09:48;3.31;75.05
74923;HTU21D;64715;44.760;37.678;2023-03-14T02:10:55;3.34;74.97
74923;HTU21D;64715;44.760;37.678;2023-03-14T02:12:14;3.31;75.13
74923;HTU21D;64715;44.760;37.678;2023-03-14T02:13:23;3.32;75.03
74923;HTU21D;64715;44.760;37.678;2023-03-14T02:14:44;3.32;75.06
74923;HTU21D;64715;44.760;37.678;2023-03-14T02:16:15;3.33;75.03
74923;HTU21D;64715;44.760;37.678;2023-03-14T02:17:37;3.31;75.29
74923;HTU21D;64715;44.760;37.678;2023-03-14T02:18:51;3.31;75.25
74923;HTU21D;64715;44.760;37.678;2023-03-14T02:22:45;3.29;75.53
74923;HTU21D;64715;44.760;37.678;2023-03-14T02:25:40;3.30;75.47
74923;HTU21D;64715;44.760;37.678;2023-03-14T02:28:02;3.29;75.43
74923;HTU21D;64715;44.760;37.678;2023-03-14T02:29:03;3.29;75.47
74923;HTU21D;64715;44.760;37.678;2023-03-14T02:30:11;3.28;75.37
74923;HTU21D;64715;44.760;37.678;2023-03-14T02:31:15;3.28;75.60
74923;HTU21D;64715;44.760;37.678;2023-03-14T02:32:18;3.29;75.25
74923;HTU21D;64715;44.760;37.678;2023-03-14T02:33:20;3.32;75.51
74923;HTU21D;64715;44.760;37.678;2023-03-14T02:34:22;3.31;75.74
74923;HTU21D;64715;44.760;37.678;2023-03-14T02:35:27;3.35;75.66
74923;HTU21D;64715;44.760;37.678;2023-03-14T02:36:29;3.35;75.56
74923;HTU21D;64715;44.760;37.678;2023-03-14T02:37:47;3.34;75.60
74923;HTU21D;64715;44.760;37.678;2023-03-14T02:39:10;3.33;75.47
74923;HTU21D;64715;44.760;37.678;2023-03-14T02:40:16;3.31;75.41
74923;HTU21D;64715;44.760;37.678;2023-03-14T02:41:17;3.34;75.70
74923;HTU21D;64715;44.760;37.678;2023-03-14T02:42:24;3.36;75.66
74923;HTU21D;64715;44.760;37.678;2023-03-14T02:43:26;3.39;75.74
74923;HTU21D;64715;44.760;37.678;2023-03-14T02:44:33;3.42;75.44
74923;HTU21D;64715;44.760;37.678;2023-03-14T02:45:49;3.43;75.41
74923;HTU21D;64715;44.760;37.678;2023-03-14T02:46:54;3.45;75.42
74923;HTU21D;64715;44.760;37.678;2023-03-14T02:48:01;3.46;75.45
74923;HTU21D;64715;44.760;37.678;2023-03-14T02:49:10;3.46;75.69
74923;HTU21D;64715;44.760;37.678;2023-03-14T02:50:15;3.47;75.52
74923;HTU21D;64715;44.760;37.678;2023-03-14T02:51:20;3.50;75.50
74923;HTU21D;64715;44.760;37.678;2023-03-14T02:52:22;3.49;75.47
74923;HTU21D;64715;44.760;37.678;2023-03-14T02:53:29;3.50;75.35
74923;HTU21D;64715;44.760;37.678;2023-03-14T02:54:32;3.52;75.52
74923;HTU21D;64715;44.760;37.678;2023-03-14T02:55:35;3.52;75.25
74923;HTU21D;64715;44.760;37.678;2023-03-14T02:56:42;3.53;75.38
74923;HTU21D;64715;44.760;37.678;2023-03-14T02:57:46;3.53;75.34
74923;HTU21D;64715;44.760;37.678;2023-03-14T02:58:47;3.54;75.59
74923;HTU21D;64715;44.760;37.678;2023-03-14T03:00:00;3.53;75.33
74923;HTU21D;64715;44.760;37.678;2023-03-14T03:01:06;3.53;75.44
74923;HTU21D;64715;44.760;37.678;2023-03-14T03:02:07;3.52;75.41
74923;HTU21D;64715;44.760;37.678;2023-03-14T03:03:13;3.55;75.62
74923;HTU21D;64715;44.760;37.678;2023-03-14T03:04:15;3.58;75.57
74923;HTU21D;64715;44.760;37.678;2023-03-14T03:05:18;3.62;75.57
74923;HTU21D;64715;44.760;37.678;2023-03-14T03:06:19;3.61;75.36
74923;HTU21D;64715;44.760;37.678;2023-03-14T03:07:20;3.62;75.55
74923;HTU21D;64715;44.760;37.678;2023-03-14T03:08:23;3.63;75.46
74923;HTU21D;64715;44.760;37.678;2023-03-14T03:09:25;3.67;75.41
74923;HTU21D;64715;44.760;37.678;2023-03-14T03:10:27;3.70;75.29
74923;HTU21D;64715;44.760;37.678;2023-03-14T03:11:29;3.72;75.29
74923;HTU21D;64715;44.760;37.678;2023-03-14T03:12:30;3.73;74.94
74923;HTU21D;64715;44.760;37.678;2023-03-14T03:13:31;3.75;74.83
74923;HTU21D;64715;44.760;37.678;2023-03-14T03:14:35;3.72;74.74
74923;HTU21D;64715;44.760;37.678;2023-03-14T03:15:38;3.70;74.83
74923;HTU21D;64715;44.760;37.678;2023-03-14T03:16:40;3.70;74.99
74923;HTU21D;64715;44.760;37.678;2023-03-14T03:17:41;3.69;75.15
74923;HTU21D;64715;44.760;37.678;2023-03-14T03:18:42;3.70;75.33
74923;HTU21D;64715;44.760;37.678;2023-03-14T03:19:43;3.71;75.18
74923;HTU21D;64715;44.760;37.678;2023-03-14T03:20:45;3.74;74.58
74923;HTU21D;64715;44.760;37.678;2023-03-14T03:21:46;3.73;74.89
74923;HTU21D;64715;44.760;37.678;2023-03-14T03:22:47;3.74;74.81
74923;HTU21D;64715;44.760;37.678;2023-03-14T03:23:50;3.73;74.91
74923;HTU21D;64715;44.760;37.678;2023-03-14T03:24:51;3.74;74.74
74923;HTU21D;64715;44.760;37.678;2023-03-14T03:25:52;3.76;74.73
74923;HTU21D;64715;44.760;37.678;2023-03-14T03:26:53;3.76;74.86
74923;HTU21D;64715;44.760;37.678;2023-03-14T03:27:55;3.84;74.82
74923;HTU21D;64715;44.760;37.678;2023-03-14T03:28:56;3.82;74.96
74923;HTU21D;64715;44.760;37.678;2023-03-14T03:29:58;3.82;74.63
74923;HTU21D;64715;44.760;37.678;2023-03-14T03:31:06;3.84;74.57
74923;HTU21D;64715;44.760;37.678;2023-03-14T03:32:08;3.84;74.69
74923;HTU21D;64715;44.760;37.678;2023-03-14T03:33:10;3.84;74.42
74923;HTU21D;64715;44.760;37.678;2023-03-14T03:34:12;3.85;74.50
74923;HTU21D;64715;44.760;37.678;2023-03-14T03:35:13;3.83;74.38
74923;HTU21D;64715;44.760;37.678;2023-03-14T03:36:20;3.83;74.77
74923;HTU21D;64715;44.760;37.678;2023-03-14T03:37:22;3.83;74.59
74923;HTU21D;64715;44.760;37.678;2023-03-14T03:38:23;3.82;74.39
74923;HTU21D;64715;44.760;37.678;2023-03-14T03:39:27;3.82;74.41
74923;HTU21D;64715;44.760;37.678;2023-03-14T03:40:29;3.82;74.23
74923;HTU21D;64715;44.760;37.678;2023-03-14T03:41:30;3.79;74.41
74923;HTU21D;64715;44.760;37.678;2023-03-14T03:42:33;3.78;74.59
74923;HTU21D;64715;44.760;37.678;2023-03-14T03:43:34;3.79;74.68
74923;HTU21D;64715;44.760;37.678;2023-03-14T03:44:37;3.78;74.57
74923;HTU21D;64715;44.760;37.678;2023-03-14T03:45:38;3.80;74.59
74923;HTU21D;64715;44.760;37.678;2023-03-14T03:46:40;3.79;74.51
74923;HTU21D;64715;44.760;37.678;2023-03-14T03:47:42;3.79;74.66
74923;HTU21D;64715;44.760;37.678;2023-03-14T03:48:43;3.85;74.57
74923;HTU21D;64715;44.760;37.678;2023-03-14T03:49:44;3.85;74.92
74923;HTU21D;64715;44.760;37.678;2023-03-14T03:50:46;3.88;74.89
74923;HTU21D;64715;44.760;37.678;2023-03-14T03:51:50;3.89;74.64
74923;HTU21D;64715;44.760;37.678;2023-03-14T03:52:52;3.91;74.84
74923;HTU21D;64715;44.760;37.678;2023-03-14T03:53:53;3.93;74.90
74923;HTU21D;64715;44.760;37.678;2023-03-14T03:55:02;3.98;74.75
74923;HTU21D;64715;44.760;37.678;2023-03-14T03:56:03;3.99;74.70
74923;HTU21D;64715;44.760;37.678;2023-03-14T03:57:04;4.02;74.82
74923;HTU21D;64715;44.760;37.678;2023-03-14T03:58:08;4.08;74.50
74923;HTU21D;64715;44.760;37.678;2023-03-14T03:59:09;4.12;74.83
74923;HTU21D;64715;44.760;37.678;2023-03-14T04:00:11;4.17;74.63
74923;HTU21D;64715;44.760;37.678;2023-03-14T04:01:16;4.22;74.48
74923;HTU21D;64715;44.760;37.678;2023-03-14T04:02:20;4.23;74.19
74923;HTU21D;64715;44.760;37.678;2023-03-14T04:03:22;4.28;74.13
74923;HTU21D;64715;44.760;37.678;2023-03-14T04:04:23;4.27;73.90
74923;HTU21D;64715;44.760;37.678;2023-03-14T04:05:24;4.26;74.00
74923;HTU21D;64715;44.760;37.678;2023-03-14T04:06:32;4.26;74.19
74923;HTU21D;64715;44.760;37.678;2023-03-14T04:07:35;4.26;73.99
74923;HTU21D;64715;44.760;37.678;2023-03-14T04:08:36;4.27;74.09
74923;HTU21D;64715;44.760;37.678;2023-03-14T04:09:38;4.22;73.98
74923;HTU21D;64715;44.760;37.678;2023-03-14T04:10:58;4.22;73.80
74923;HTU21D;64715;44.760;37.678;2023-03-14T04:12:18;4.17;73.92
74923;HTU21D;64715;44.760;37.678;2023-03-14T04:13:33;4.15;73.73
74923;HTU21D;64715;44.760;37.678;2023-03-14T04:14:34;4.13;73.91
74923;HTU21D;64715;44.760;37.678;2023-03-14T04:15:48;4.10;73.77
74923;HTU21D;64715;44.760;37.678;2023-03-14T04:16:55;4.10;74.18
74923;HTU21D;64715;44.760;37.678;2023-03-14T04:17:57;4.08;74.19
74923;HTU21D;64715;44.760;37.678;2023-03-14T04:18:59;4.07;74.15
74923;HTU21D;64715;44.760;37.678;2023-03-14T04:20:00;4.09;74.25
74923;HTU21D;64715;44.760;37.678;2023-03-14T04:21:09;4.08;74.28
74923;HTU21D;64715;44.760;37.678;2023-03-14T04:22:18;4.09;74.21
74923;HTU21D;64715;44.760;37.678;2023-03-14T04:23:24;4.07;74.46
74923;HTU21D;64715;44.760;37.678;2023-03-14T04:24:27;4.06;74.40
74923;HTU21D;64715;44.760;37.678;2023-03-14T04:25:30;4.06;74.53
74923;HTU21D;64715;44.760;37.678;2023-03-14T04:26:32;4.08;74.47
74923;HTU21D;64715;44.760;37.678;2023-03-14T04:27:34;4.08;74.64
74923;HTU21D;64715;44.760;37.678;2023-03-14T04:28:36;4.09;74.41
74923;HTU21D;64715;44.760;37.678;2023-03-14T04:29:38;4.09;74.54
74923;HTU21D;64715;44.760;37.678;2023-03-14T04:30:39;4.12;74.42
74923;HTU21D;64715;44.760;37.678;2023-03-14T04:31:47;4.14;74.30
74923;HTU21D;64715;44.760;37.678;2023-03-14T04:32:48;4.15;74.65
74923;HTU21D;64715;44.760;37.678;2023-03-14T04:33:50;4.16;74.69
74923;HTU21D;64715;44.760;37.678;2023-03-14T04:34:58;4.16;74.68
74923;HTU21D;64715;44.760;37.678;2023-03-14T04:35:59;4.19;74.43
74923;HTU21D;64715;44.760;37.678;2023-03-14T04:37:00;4.20;74.48
74923;HTU21D;64715;44.760;37.678;2023-03-14T04:38:12;4.23;74.57
74923;HTU21D;64715;44.760;37.678;2023-03-14T04:39:19;4.24;74.32
74923;HTU21D;64715;44.760;37.678;2023-03-14T04:40:27;4.29;74.54
74923;HTU21D;64715;44.760;37.678;2023-03-14T04:41:33;4.30;74.32
74923;HTU21D;64715;44.760;37.678;2023-03-14T04:42:34;4.32;74.13
74923;HTU21D;64715;44.760;37.678;2023-03-14T04:43:35;4.32;74.25
74923;HTU21D;64715;44.760;37.678;2023-03-14T04:44:40;4.36;74.52
74923;HTU21D;64715;44.760;37.678;2023-03-14T04:45:42;4.36;74.35
74923;HTU21D;64715;44.760;37.678;2023-03-14T04:46:44;4.41;74.42
74923;HTU21D;64715;44.760;37.678;2023-03-14T04:47:46;4.42;74.16
74923;HTU21D;64715;44.760;37.678;2023-03-14T04:48:52;4.46;74.40
74923;HTU21D;64715;44.760;37.678;2023-03-14T04:49:53;4.46;74.19
74923;HTU21D;64715;44.760;37.678;2023-03-14T04:50:55;4.48;74.23
74923;HTU21D;64715;44.760;37.678;2023-03-14T04:51:56;4.50;73.68
74923;HTU21D;64715;44.760;37.678;2023-03-14T04:52:59;4.53;73.87
74923;HTU21D;64715;44.760;37.678;2023-03-14T04:54:00;4.56;74.02
74923;HTU21D;64715;44.760;37.678;2023-03-14T04:55:02;4.60;74.06
74923;HTU21D;64715;44.760;37.678;2023-03-14T04:56:03;4.62;73.93
74923;HTU21D;64715;44.760;37.678;2023-03-14T04:57:12;4.65;73.85
74923;HTU21D;64715;44.760;37.678;2023-03-14T04:58:14;4.71;73.78
74923;HTU21D;64715;44.760;37.678;2023-03-14T04:59:16;4.78;73.64
74923;HTU21D;64715;44.760;37.678;2023-03-14T05:00:17;4.84;73.79
74923;HTU21D;64715;44.760;37.678;2023-03-14T05:01:45;4.89;73.48
74923;HTU21D;64715;44.760;37.678;2023-03-14T05:03:24;4.97;73.54
74923;HTU21D;64715;44.760;37.678;2023-03-14T05:04:33;5.05;73.32
74923;HTU21D;64715;44.760;37.678;2023-03-14T05:06:04;5.11;73.44
74923;HTU21D;64715;44.760;37.678;2023-03-14T05:07:14;5.20;73.22
74923;HTU21D;64715;44.760;37.678;2023-03-14T05:08:41;5.26;73.13
74923;HTU21D;64715;44.760;37.678;2023-03-14T05:09:48;5.28;73.12
74923;HTU21D;64715;44.760;37.678;2023-03-14T05:11:03;5.33;73.17
74923;HTU21D;64715;44.760;37.678;2023-03-14T05:12:30;5.42;72.93
74923;HTU21D;64715;44.760;37.678;2023-03-14T05:13:39;5.49;72.82
74923;HTU21D;64715;44.760;37.678;2023-03-14T05:15:00;5.55;72.72
74923;HTU21D;64715;44.760;37.678;2023-03-14T05:16:20;5.60;72.35
74923;HTU21D;64715;44.760;37.678;2023-03-14T05:17:56;5.64;72.09
74923;HTU21D;64715;44.760;37.678;2023-03-14T05:19:15;5.63;72.27
74923;HTU21D;64715;44.760;37.678;2023-03-14T05:20:34;5.65;72.31
74923;HTU21D;64715;44.760;37.678;2023-03-14T05:22:14;5.64;72.00
74923;HTU21D;64715;44.760;37.678;2023-03-14T05:23:34;5.64;71.82
74923;HTU21D;64715;44.760;37.678;2023-03-14T05:24:46;5.62;71.78
74923;HTU21D;64715;44.760;37.678;2023-03-14T05:26:07;5.60;71.81
74923;HTU21D;64715;44.760;37.678;2023-03-14T05:27:27;5.57;71.54
74923;HTU21D;64715;44.760;37.678;2023-03-14T05:28:47;5.52;71.58
74923;HTU21D;64715;44.760;37.678;2023-03-14T05:30:21;5.53;71.71
74923;HTU21D;64715;44.760;37.678;2023-03-14T05:31:41;5.53;71.61
74923;HTU21D;64715;44.760;37.678;2023-03-14T05:43:52;6.25;68.91
74923;HTU21D;64715;44.760;37.678;2023-03-14T05:45:13;6.22;68.64
74923;HTU21D;64715;44.760;37.678;2023-03-14T05:46:40;6.14;68.94
74923;HTU21D;64715;44.760;37.678;2023-03-14T05:48:17;6.04;68.91
74923;HTU21D;64715;44.760;37.678;2023-03-14T05:49:39;5.94;69.25
74923;HTU21D;64715;44.760;37.678;2023-03-14T05:51:05;5.84;69.28
74923;HTU21D;64715;44.760;37.678;2023-03-14T05:52:29;5.80;69.60
74923;HTU21D;64715;44.760;37.678;2023-03-14T05:53:53;5.74;69.79
74923;HTU21D;64715;44.760;37.678;2023-03-14T05:55:08;5.69;70.10
74923;HTU21D;64715;44.760;37.678;2023-03-14T05:56:26;5.64;69.97
74923;HTU21D;64715;44.760;37.678;2023-03-14T05:57:39;5.62;70.08
74923;HTU21D;64715;44.760;37.678;2023-03-14T05:58:50;5.56;70.35
74923;HTU21D;64715;44.760;37.678;2023-03-14T06:00:12;5.57;70.68
74923;HTU21D;64715;44.760;37.678;2023-03-14T06:01:29;5.54;70.66
74923;HTU21D;64715;44.760;37.678;2023-03-14T06:02:41;5.54;70.72
74923;HTU21D;64715;44.760;37.678;2023-03-14T06:03:52;5.53;70.61
74923;HTU21D;64715;44.760;37.678;2023-03-14T06:04:54;5.52;70.64
74923;HTU21D;64715;44.760;37.678;2023-03-14T06:05:54;5.51;70.83
74923;HTU21D;64715;44.760;37.678;2023-03-14T06:06:57;5.51;70.92
74923;HTU21D;64715;44.760;37.678;2023-03-14T06:07:59;5.51;71.19
74923;HTU21D;64715;44.760;37.678;2023-03-14T06:09:02;5.52;70.99
74923;HTU21D;64715;44.760;37.678;2023-03-14T06:10:06;5.52;71.16
74923;HTU21D;64715;44.760;37.678;2023-03-14T06:11:08;5.52;70.96
74923;HTU21D;64715;44.760;37.678;2023-03-14T06:12:09;5.52;71.01
74923;HTU21D;64715;44.760;37.678;2023-03-14T06:13:16;5.49;70.94
74923;HTU21D;64715;44.760;37.678;2023-03-14T06:14:19;5.50;71.25
74923;HTU21D;64715;44.760;37.678;2023-03-14T06:15:21;5.48;71.16
74923;HTU21D;64715;44.760;37.678;2023-03-14T06:16:25;5.50;70.93
74923;HTU21D;64715;44.760;37.678;2023-03-14T06:17:28;5.51;71.15
74923;HTU21D;64715;44.760;37.678;2023-03-14T06:18:40;5.53;71.01
74923;HTU21D;64715;44.760;37.678;2023-03-14T06:19:42;5.51;70.90
74923;HTU21D;64715;44.760;37.678;2023-03-14T06:20:46;5.50;71.31
74923;HTU21D;64715;44.760;37.678;2023-03-14T06:21:55;5.49;71.42
74923;HTU21D;64715;44.760;37.678;2023-03-14T06:22:58;5.51;71.33
74923;HTU21D;64715;44.760;37.678;2023-03-14T06:24:00;5.50;71.23
74923;HTU21D;64715;44.760;37.678;2023-03-14T06:25:04;5.50;71.44
74923;HTU21D;64715;44.760;37.678;2023-03-14T06:26:05;5.48;71.17
74923;HTU21D;64715;44.760;37.678;2023-03-14T06:27:06;5.47;71.44
74923;HTU21D;64715;44.760;37.678;2023-03-14T06:28:08;5.43;71.29
74923;HTU21D;64715;44.760;37.678;2023-03-14T06:29:10;5.43;71.55
74923;HTU21D;64715;44.760;37.678;2023-03-14T06:30:12;5.43;71.67
74923;HTU21D;64715;44.760;37.678;2023-03-14T06:31:13;5.46;71.58
74923;HTU21D;64715;44.760;37.678;2023-03-14T06:32:23;5.43;71.64
74923;HTU21D;64715;44.760;37.678;2023-03-14T06:33:27;5.46;71.87
74923;HTU21D;64715;44.760;37.678;2023-03-14T06:34:28;5.48;71.59
74923;HTU21D;64715;44.760;37.678;2023-03-14T06:35:29;5.49;71.93
74923;HTU21D;64715;44.760;37.678;2023-03-14T06:36:30;5.54;71.90
74923;HTU21D;64715;44.760;37.678;2023-03-14T06:37:32;5.60;72.10
74923;HTU21D;64715;44.760;37.678;2023-03-14T06:38:33;5.62;71.80
74923;HTU21D;64715;44.760;37.678;2023-03-14T06:39:35;5.60;71.84
74923;HTU21D;64715;44.760;37.678;2023-03-14T06:40:43;5.64;71.93
74923;HTU21D;64715;44.760;37.678;2023-03-14T06:41:51;5.63;71.86
74923;HTU21D;64715;44.760;37.678;2023-03-14T06:42:53;5.65;71.59
74923;HTU21D;64715;44.760;37.678;2023-03-14T06:43:56;5.65;71.74
74923;HTU21D;64715;44.760;37.678;2023-03-14T06:44:57;5.66;71.62
74923;HTU21D;64715;44.760;37.678;2023-03-14T06:46:00;5.66;71.22
74923;HTU21D;64715;44.760;37.678;2023-03-14T06:47:01;5.65;71.45
74923;HTU21D;64715;44.760;37.678;2023-03-14T06:48:02;5.65;71.24
74923;HTU21D;64715;44.760;37.678;2023-03-14T06:49:21;5.64;71.58
74923;HTU21D;64715;44.760;37.678;2023-03-14T06:50:26;5.64;71.40
74923;HTU21D;64715;44.760;37.678;2023-03-14T06:51:27;5.61;71.38
74923;HTU21D;64715;44.760;37.678;2023-03-14T06:52:28;5.61;71.37
74923;HTU21D;64715;44.760;37.678;2023-03-14T06:53:29;5.59;71.55
74923;HTU21D;64715;44.760;37.678;2023-03-14T06:54:33;5.59;71.56
74923;HTU21D;64715;44.760;37.678;2023-03-14T06:55:34;5.60;71.50
74923;HTU21D;64715;44.760;37.678;2023-03-14T06:56:35;5.59;71.38
74923;HTU21D;64715;44.760;37.678;2023-03-14T06:57:36;5.59;71.69
74923;HTU21D;64715;44.760;37.678;2023-03-14T06:58:37;5.59;71.56
74923;HTU21D;64715;44.760;37.678;2023-03-14T06:59:40;5.62;71.56
74923;HTU21D;64715;44.760;37.678;2023-03-14T07:00:41;5.62;71.72
74923;HTU21D;64715;44.760;37.678;2023-03-14T07:01:46;5.64;71.49
74923;HTU21D;64715;44.760;37.678;2023-03-14T07:02:49;5.66;71.52
74923;HTU21D;64715;44.760;37.678;2023-03-14T07:03:59;5.64;71.72
74923;HTU21D;64715;44.760;37.678;2023-03-14T07:05:00;5.66;71.64